Hundvaag 1 weather for Aug 1999
Month no. 146
Obs.
Da.
Temp. Dew Point Precip. Wind
Speed
Wind gusts Cloud cover Press. Humidity Wind dir. Sunny OPT
01.08.1999 10,9   0,0     10       1  
02.08.1999 15,1   0,0     9       1  
03.08.1999 14,9   0,0     10       1  
04.08.1999 14,3   0,0     10       1  
05.08.1999 14,2   0,0     9       1  
06.08.1999 14,5   0,0     7       1  
07.08.1999 15,0   0,0     8       1  
08.08.1999 20,1   0,0     5       1  
09.08.1999 15,6   6,0     0       1  
10.08.1999 11,3   0,0     1       1  
11.08.1999 12,3   0,0     0       1  
12.08.1999 11,8   0,0     0       1  
13.08.1999 11,0   0,0     1       1  
14.08.1999 14,3   0,0     0          
15.08.1999 13,9   9,0     0       1  
16.08.1999 13,2   22,0     0          
17.08.1999 11,2   0,0     3          
18.08.1999 9,7   0,0     9       1  
19.08.1999 15,0   3,0     0       1  
20.08.1999 12,0   0,0     7       1  
21.08.1999 11,4   0,0     8       1  
22.08.1999 10,4   0,0     10       1  
23.08.1999 11,3   0,0     7       1  
24.08.1999 12,2   0,0     10       1  
25.08.1999 10,2   0,0     9       1  
26.08.1999 16,5   0,0     2          
27.08.1999 15,0   9,0     0          
28.08.1999 13,4   4,0     2       1  
29.08.1999 14,7   0,0     4       1  
30.08.1999 13,1   8,0     0       1  
31.08.1999 11,9   0,0     10       1  
Avrg/Sum 13,2   61,0     4,9       26